Time;durP1;ratioP1;P1;durP2;ratioP2;P2;SDS_P1;SDS_P2;PMS_P1;PMS_P2;Temp;Humidity;BMP_temperature;BMP_pressure;BME280_temperature;BME280_humidity;BME280_pressure;Samples;Min_cycle;Max_cycle;Signal;HPM_P1;HPM_P2
2023/05/29 00:01:40;;;;;;;13.68;5.43;;;;;;;11.36;100.00;102144.28;4986895;28;20027;-94
2023/05/29 00:04:06;;;;;;;14.10;5.03;;;;;;;11.34;100.00;102147.16;4992781;28;20030;-95
2023/05/29 00:06:31;;;;;;;13.57;4.82;;;;;;;11.33;100.00;102145.53;4997291;28;20084;-95
2023/05/29 00:08:57;;;;;;;12.53;4.67;;;;;;;11.21;100.00;102158.94;4999554;28;20030;-94
2023/05/29 00:11:22;;;;;;;14.17;5.03;;;;;;;11.13;100.00;102155.78;4998034;28;20045;-93
2023/05/29 00:13:48;;;;;;;15.50;4.30;;;;;;;11.08;100.00;102152.94;4997503;28;20719;-93
2023/05/29 00:16:13;;;;;;;16.50;4.93;;;;;;;11.03;100.00;102146.41;4998095;28;20121;-93
2023/05/29 00:18:45;;;;;;;12.57;4.30;;;;;;;10.98;100.00;102153.50;4998316;28;20022;-93
2023/05/29 00:21:11;;;;;;;15.13;4.57;;;;;;;10.99;100.00;102160.50;4997704;28;20501;-94
2023/05/29 00:23:36;;;;;;;11.88;4.40;;;;;;;10.94;100.00;102166.56;4999003;28;20044;-94
2023/05/29 00:26:01;;;;;;;13.97;4.80;;;;;;;10.94;100.00;102163.03;4998063;28;20026;-94
2023/05/29 00:28:27;;;;;;;15.33;3.77;;;;;;;10.88;100.00;102160.22;4997581;28;20437;-93
2023/05/29 00:30:52;;;;;;;15.87;4.07;;;;;;;10.74;100.00;102159.59;4997568;28;20073;-94
2023/05/29 00:33:18;;;;;;;11.73;3.90;;;;;;;10.71;100.00;102169.94;4997945;28;20033;-94
2023/05/29 00:35:43;;;;;;;15.90;3.78;;;;;;;10.66;100.00;102167.13;5002291;28;20030;-93
2023/05/29 00:38:09;;;;;;;12.13;3.80;;;;;;;10.57;100.00;102163.94;5018557;28;20022;-93
2023/05/29 00:40:34;;;;;;;13.43;3.70;;;;;;;10.58;100.00;102173.59;4993726;28;20173;-93
2023/05/29 00:42:59;;;;;;;18.33;3.80;;;;;;;10.49;100.00;102174.94;5000173;28;20078;-95
2023/05/29 00:45:26;;;;;;;18.27;3.93;;;;;;;10.42;100.00;102170.47;5006891;28;20022;-96
2023/05/29 00:47:51;;;;;;;12.98;3.67;;;;;;;10.37;100.00;102164.94;4999236;28;20085;-95
2023/05/29 00:50:17;;;;;;;14.03;3.47;;;;;;;10.36;100.00;102173.19;4983292;28;20035;-95
2023/05/29 00:52:45;;;;;;;15.33;3.17;;;;;;;10.33;100.00;102179.00;5001097;28;20037;-94
2023/05/29 00:55:11;;;;;;;11.40;3.23;;;;;;;10.27;100.00;102186.06;4984812;28;20790;-96
2023/05/29 00:57:40;;;;;;;13.30;3.05;;;;;;;10.22;100.00;102186.72;4984342;28;20026;-96
2023/05/29 01:00:11;;;;;;;15.98;3.25;;;;;;;10.14;100.00;102169.09;4982429;28;20041;-94
2023/05/29 01:02:39;;;;;;;17.33;3.25;;;;;;;10.13;100.00;102183.53;4964251;28;20040;-95
2023/05/29 01:05:05;;;;;;;15.15;2.95;;;;;;;10.03;100.00;102175.19;4991102;28;20525;-95
2023/05/29 01:07:32;;;;;;;9.68;2.50;;;;;;;10.03;100.00;102179.72;4983893;28;20057;-95
2023/05/29 01:09:57;;;;;;;14.63;2.88;;;;;;;9.92;100.00;102190.13;4982832;28;20019;-96
2023/05/29 01:12:43;;;;;;;18.63;3.00;;;;;;;9.95;100.00;102202.25;5000521;28;20665;-96
2023/05/29 01:15:23;;;;;;;13.55;3.42;;;;;;;9.90;100.00;102205.59;5002677;28;20085;-96
2023/05/29 01:18:08;;;;;;;16.30;2.70;;;;;;;9.85;100.00;102202.72;4981660;28;20027;-96
2023/05/29 01:20:43;;;;;;;13.73;2.80;;;;;;;9.80;100.00;102213.28;4979698;28;20030;-94
2023/05/29 01:23:49;;;;;;;16.70;2.80;;;;;;;9.76;100.00;102207.53;4979696;28;20030;-95
2023/05/29 01:26:25;;;;;;;14.87;2.43;;;;;;;9.81;100.00;102214.91;4997367;28;20296;-96
2023/05/29 01:28:53;;;;;;;16.17;2.53;;;;;;;9.69;100.00;102204.09;4997067;28;20117;-96
2023/05/29 01:31:24;;;;;;;13.18;2.53;;;;;;;9.72;100.00;102209.00;4974600;28;20031;-94
2023/05/29 01:33:58;;;;;;;11.88;2.65;;;;;;;9.59;100.00;102199.22;4976100;28;20110;-95
2023/05/29 01:36:24;;;;;;;14.50;2.67;;;;;;;9.63;100.00;102204.97;4958735;28;20027;-96
2023/05/29 01:38:51;;;;;;;13.85;2.75;;;;;;;9.61;100.00;102205.19;4986554;28;20465;-94
2023/05/29 01:41:17;;;;;;;13.00;2.75;;;;;;;9.53;100.00;102200.13;4995846;28;20022;-94
2023/05/29 01:43:45;;;;;;;18.67;2.57;;;;;;;9.52;100.00;102212.66;4996358;28;20026;-95
2023/05/29 01:46:12;;;;;;;14.23;2.50;;;;;;;9.47;100.00;102201.81;4977837;28;20289;-96
2023/05/29 01:48:37;;;;;;;12.85;2.75;;;;;;;9.44;100.00;102202.22;4985573;28;20445;-96
2023/05/29 01:51:03;;;;;;;17.35;2.88;;;;;;;9.39;100.00;102208.22;4977914;28;20054;-95
2023/05/29 01:53:29;;;;;;;15.27;2.60;;;;;;;9.32;100.00;102207.44;4976752;28;20043;-95
2023/05/29 01:55:54;;;;;;;11.57;2.13;;;;;;;9.29;100.00;102201.72;4985737;28;20052;-96
2023/05/29 01:58:21;;;;;;;16.60;3.30;;;;;;;9.26;100.00;102199.47;4995074;28;20092;-95
2023/05/29 02:00:47;;;;;;;17.45;2.58;;;;;;;9.25;100.00;102201.31;4994814;28;20125;-95
2023/05/29 02:03:12;;;;;;;11.93;2.05;;;;;;;9.19;100.00;102192.28;4995810;28;20041;-95
2023/05/29 02:05:38;;;;;;;13.90;2.30;;;;;;;9.25;100.00;102198.63;4994690;28;20474;-95
2023/05/29 02:08:03;;;;;;;15.83;2.47;;;;;;;9.18;100.00;102189.84;4978654;28;20033;-94
2023/05/29 02:10:29;;;;;;;15.73;2.00;;;;;;;9.14;100.00;102186.75;5005209;28;20438;-95
2023/05/29 02:12:55;;;;;;;18.23;2.78;;;;;;;9.12;100.00;102196.88;4990646;28;20216;-94
2023/05/29 02:15:20;;;;;;;17.50;2.83;;;;;;;9.09;100.00;102195.44;5001036;28;20137;-94
2023/05/29 02:17:46;;;;;;;9.57;2.10;;;;;;;9.12;100.00;102206.72;5006768;28;20751;-94
2023/05/29 02:20:11;;;;;;;16.00;2.30;;;;;;;9.00;100.00;102196.72;5010487;28;20074;-95
2023/05/29 02:22:37;;;;;;;15.13;2.30;;;;;;;8.99;100.00;102195.09;4978906;28;20187;-96
2023/05/29 02:25:02;;;;;;;9.30;2.13;;;;;;;8.98;100.00;102208.66;4995842;28;20062;-95
2023/05/29 02:27:27;;;;;;;16.45;2.15;;;;;;;8.94;100.00;102208.25;4995401;28;20022;-95
2023/05/29 02:29:53;;;;;;;12.57;2.43;;;;;;;8.86;100.00;102201.31;4985753;28;20117;-95
2023/05/29 02:32:18;;;;;;;21.53;2.83;;;;;;;8.90;100.00;102210.56;4976449;28;20022;-95
2023/05/29 02:34:44;;;;;;;12.50;2.07;;;;;;;8.85;100.00;102201.53;4975542;28;20029;-95
2023/05/29 02:37:09;;;;;;;16.95;2.25;;;;;;;8.84;100.00;102214.06;4957727;28;20478;-94
2023/05/29 02:39:34;;;;;;;14.10;2.57;;;;;;;8.82;100.00;102221.47;4976721;28;20093;-96
2023/05/29 02:42:00;;;;;;;19.47;2.67;;;;;;;8.78;100.00;102214.91;4997186;28;20519;-95
2023/05/29 02:44:25;;;;;;;12.27;2.20;;;;;;;8.76;100.00;102219.66;4999816;28;20038;-94
2023/05/29 02:46:51;;;;;;;12.93;2.33;;;;;;;8.69;100.00;102214.31;4967417;28;20027;-95
2023/05/29 02:49:16;;;;;;;15.80;2.60;;;;;;;8.73;100.00;102220.06;4970554;28;20122;-94
2023/05/29 02:51:41;;;;;;;17.27;2.20;;;;;;;8.65;100.00;102218.47;4993907;28;20081;-95
2023/05/29 02:54:06;;;;;;;15.00;2.47;;;;;;;8.63;100.00;102215.97;4994517;28;20030;-95
2023/05/29 02:56:32;;;;;;;13.63;2.57;;;;;;;8.61;100.00;102220.72;4975679;28;20030;-96
2023/05/29 02:58:58;;;;;;;11.05;2.30;;;;;;;8.67;100.00;102228.94;4992434;28;20045;-95
2023/05/29 03:01:23;;;;;;;18.07;2.40;;;;;;;8.57;100.00;102226.69;4977026;28;20026;-96
2023/05/29 03:03:48;;;;;;;16.67;2.13;;;;;;;8.59;100.00;102225.44;4993297;28;20026;-94
2023/05/29 03:06:16;;;;;;;14.23;2.13;;;;;;;8.57;100.00;102224.03;4992919;28;20045;-93
2023/05/29 03:08:44;;;;;;;13.63;2.15;;;;;;;8.47;100.00;102224.44;4993815;28;20505;-95
2023/05/29 03:11:10;;;;;;;15.90;2.17;;;;;;;8.40;100.00;102220.97;4992701;28;20034;-94
2023/05/29 03:13:36;;;;;;;14.27;1.70;;;;;;;8.38;100.00;102226.50;4976312;28;20293;-96
2023/05/29 03:16:02;;;;;;;14.88;1.88;;;;;;;8.35;100.00;102218.91;4975618;28;20034;-95
2023/05/29 03:18:27;;;;;;;14.20;2.20;;;;;;;8.37;100.00;102226.72;4986408;28;20038;-95
2023/05/29 03:20:53;;;;;;;20.07;2.00;;;;;;;8.32;100.00;102221.97;4982909;28;20085;-95
2023/05/29 03:23:19;;;;;;;23.40;2.75;;;;;;;8.27;100.00;102214.59;4982644;28;20038;-95
2023/05/29 03:25:44;;;;;;;15.13;2.30;;;;;;;8.25;100.00;102224.66;4956639;28;20067;-93
2023/05/29 03:28:10;;;;;;;17.80;2.30;;;;;;;8.26;100.00;102226.31;4976608;28;20037;-94
2023/05/29 03:30:35;;;;;;;15.30;2.28;;;;;;;8.34;100.00;102234.13;4994970;28;20132;-93
2023/05/29 03:33:03;;;;;;;22.97;2.63;;;;;;;8.28;100.00;102231.47;4993277;28;20042;-95
2023/05/29 03:35:30;;;;;;;14.98;2.47;;;;;;;8.30;100.00;102226.72;4993634;28;20032;-95
2023/05/29 03:37:55;;;;;;;21.87;3.13;;;;;;;8.33;100.00;102235.16;4983123;28;20043;-95
2023/05/29 03:40:20;;;;;;;12.83;2.30;;;;;;;8.30;100.00;102227.53;4985291;28;20847;-95
2023/05/29 03:42:46;;;;;;;20.57;2.60;;;;;;;8.31;100.00;102239.88;4994280;28;20027;-96
2023/05/29 03:45:11;;;;;;;22.60;2.37;;;;;;;8.32;100.00;102240.69;4992768;28;20030;-96
2023/05/29 03:47:36;;;;;;;21.70;2.13;;;;;;;8.28;100.00;102236.81;4993642;28;20475;-96
2023/05/29 03:50:02;;;;;;;18.15;2.17;;;;;;;8.37;100.00;102242.75;4974986;28;20022;-96
2023/05/29 03:52:27;;;;;;;15.07;2.00;;;;;;;8.31;100.00;102234.53;4972815;28;20042;-94
2023/05/29 03:54:52;;;;;;;19.20;2.50;;;;;;;8.32;100.00;102244.19;4984773;28;20117;-95
2023/05/29 03:57:18;;;;;;;15.55;2.40;;;;;;;8.31;100.00;102247.88;4974976;28;20101;-95
2023/05/29 03:59:43;;;;;;;13.33;2.60;;;;;;;8.32;100.00;102246.00;4989957;28;20037;-95
2023/05/29 04:02:10;;;;;;;18.27;2.23;;;;;;;8.33;100.00;102253.84;4993584;28;20116;-93
2023/05/29 04:04:35;;;;;;;15.20;2.47;;;;;;;8.38;100.00;102258.56;5009210;28;20077;-94
2023/05/29 04:07:01;;;;;;;19.33;2.93;;;;;;;8.38;100.00;102255.88;4994228;28;20100;-95
2023/05/29 04:09:26;;;;;;;12.50;1.87;;;;;;;8.42;100.00;102245.59;4993054;28;20474;-95
2023/05/29 04:11:51;;;;;;;24.00;3.20;;;;;;;8.44;100.00;102259.56;4966013;28;20037;-93
2023/05/29 04:14:17;;;;;;;23.17;2.80;;;;;;;8.46;100.00;102252.16;4972200;28;20023;-94
2023/05/29 04:16:43;;;;;;;17.30;2.33;;;;;;;8.50;100.00;102258.78;4955273;28;20026;-93
2023/05/29 04:19:08;;;;;;;16.77;2.75;;;;;;;8.55;100.00;102260.81;4983772;28;20034;-95
2023/05/29 04:21:34;;;;;;;17.50;2.87;;;;;;;8.62;100.00;102275.00;4992500;28;20065;-95
2023/05/29 04:24:00;;;;;;;18.45;2.83;;;;;;;8.64;100.00;102278.28;4973707;28;20030;-95
2023/05/29 04:26:25;;;;;;;18.97;2.47;;;;;;;8.68;100.00;102271.47;4972149;28;20081;-94
2023/05/29 04:28:57;;;;;;;10.88;2.10;;;;;;;8.68;100.00;102271.47;4986776;28;20027;-83
2023/05/29 04:31:24;;;;;;;22.33;3.40;;;;;;;8.73;100.00;102274.34;4985946;28;20031;-84
2023/05/29 04:33:54;;;;;;;15.87;2.37;;;;;;;8.79;100.00;102267.31;4988651;28;20297;-84
2023/05/29 04:36:23;;;;;;;16.63;2.35;;;;;;;8.86;100.00;102268.13;4987718;28;20543;-85
2023/05/29 04:38:50;;;;;;;18.85;2.80;;;;;;;8.88;100.00;102268.75;4958971;28;20109;-85
2023/05/29 04:41:16;;;;;;;16.38;2.45;;;;;;;8.92;100.00;102279.84;4990283;28;20030;-85
2023/05/29 04:43:41;;;;;;;19.30;2.30;;;;;;;9.03;100.00;102281.03;4990004;28;20026;-85
2023/05/29 04:46:12;;;;;;;20.35;2.85;;;;;;;9.14;100.00;102279.56;4981552;28;20037;-85
2023/05/29 04:48:40;;;;;;;14.73;1.98;;;;;;;9.21;100.00;102277.69;4987760;28;20041;-86
2023/05/29 04:51:06;;;;;;;16.15;2.08;;;;;;;9.32;100.00;102284.19;4990430;28;20038;-84
2023/05/29 04:53:31;;;;;;;16.37;1.70;;;;;;;9.76;100.00;102279.81;4993632;28;20080;-84
2023/05/29 04:55:56;;;;;;;14.20;2.13;;;;;;;10.33;100.00;102278.97;4993391;28;20105;-84
2023/05/29 04:58:25;;;;;;;21.88;2.60;;;;;;;10.73;100.00;102289.31;4980976;28;20053;-85
2023/05/29 05:00:51;;;;;;;14.03;2.67;;;;;;;11.02;98.29;102289.59;4974448;28;20386;-85
2023/05/29 05:03:16;;;;;;;10.48;1.80;;;;;;;11.46;97.03;102284.06;4959310;28;20035;-85
2023/05/29 05:05:43;;;;;;;25.40;3.00;;;;;;;11.84;93.91;102289.31;4974153;28;20022;-85
2023/05/29 05:08:09;;;;;;;17.98;2.50;;;;;;;12.15;90.76;102282.03;4993197;28;20026;-86
2023/05/29 05:10:35;;;;;;;18.35;2.63;;;;;;;12.44;89.46;102292.91;4976207;28;20390;-86
2023/05/29 05:13:02;;;;;;;21.13;2.47;;;;;;;12.93;88.16;102289.94;4992605;28;20034;-87
2023/05/29 05:15:28;;;;;;;13.43;2.05;;;;;;;13.33;83.96;102289.06;4993077;28;20034;-85
2023/05/29 05:17:53;;;;;;;11.57;2.10;;;;;;;13.45;81.93;102287.19;4976175;28;20027;-85
2023/05/29 05:20:18;;;;;;;18.67;2.07;;;;;;;13.54;80.83;102300.25;4991991;28;20457;-86
2023/05/29 05:22:44;;;;;;;22.87;2.63;;;;;;;13.42;80.57;102303.84;4993211;28;20026;-85
2023/05/29 05:25:10;;;;;;;21.35;2.55;;;;;;;13.54;80.85;102305.66;4976163;28;20033;-87
2023/05/29 05:27:35;;;;;;;12.40;1.70;;;;;;;13.92;79.24;102309.53;4997405;28;20063;-86
2023/05/29 05:30:05;;;;;;;22.30;2.67;;;;;;;13.94;77.26;102310.09;5006979;28;20011;-89
2023/05/29 05:32:30;;;;;;;22.42;2.72;;;;;;;14.02;77.70;102322.38;4996779;28;20094;-90
2023/05/29 05:34:56;;;;;;;11.57;2.57;;;;;;;14.19;76.80;102323.19;4996360;28;20064;-92
2023/05/29 05:37:23;;;;;;;13.68;2.13;;;;;;;13.99;76.72;102326.38;4997428;28;20375;-91
2023/05/29 05:39:50;;;;;;;16.33;2.57;;;;;;;13.84;77.89;102326.91;4984727;28;20046;-92
2023/05/29 05:42:15;;;;;;;15.03;2.73;;;;;;;13.87;76.69;102321.06;4996008;28;20347;-92
2023/05/29 05:44:41;;;;;;;17.00;2.50;;;;;;;13.96;76.34;102324.16;4996051;28;20125;-92
2023/05/29 05:47:06;;;;;;;15.10;2.07;;;;;;;13.81;76.19;102313.94;4999651;28;20033;-91
2023/05/29 05:49:32;;;;;;;18.73;3.33;;;;;;;13.75;77.29;102314.94;4998640;28;20089;-94
2023/05/29 05:51:57;;;;;;;14.63;2.47;;;;;;;13.60;78.00;102318.16;4994343;28;20117;-91
2023/05/29 05:54:22;;;;;;;19.17;2.78;;;;;;;13.38;78.99;102323.38;4981115;28;20022;-91
2023/05/29 05:56:48;;;;;;;21.83;2.30;;;;;;;12.93;80.59;102316.84;4983691;28;20097;-90
2023/05/29 05:59:13;;;;;;;14.93;2.17;;;;;;;12.67;82.15;102324.34;4995472;28;20037;-91
2023/05/29 06:01:39;;;;;;;19.43;2.30;;;;;;;12.63;83.46;102315.94;4994107;28;20478;-90
2023/05/29 06:04:04;;;;;;;12.23;2.50;;;;;;;12.76;82.97;102306.81;4985338;28;20061;-91
2023/05/29 06:06:31;;;;;;;13.93;2.20;;;;;;;12.77;80.97;102311.13;4993152;28;20068;-85
2023/05/29 06:08:58;;;;;;;21.48;2.50;;;;;;;12.76;83.63;102309.50;4990483;28;20018;-86
2023/05/29 06:11:23;;;;;;;17.73;2.57;;;;;;;12.75;82.31;102312.41;4980328;28;20715;-87
2023/05/29 06:13:48;;;;;;;12.37;1.87;;;;;;;12.71;82.72;102323.63;4988836;28;20297;-86
2023/05/29 06:16:14;;;;;;;14.93;2.23;;;;;;;12.72;82.11;102322.56;4990919;28;20092;-85
2023/05/29 06:18:39;;;;;;;20.63;2.80;;;;;;;12.70;81.49;102330.06;4990370;28;20030;-86
2023/05/29 06:21:07;;;;;;;18.67;2.78;;;;;;;12.70;81.56;102331.94;4973228;28;20541;-84
2023/05/29 06:23:33;;;;;;;15.45;3.03;;;;;;;12.67;81.03;102333.25;4992264;28;20026;-85
2023/05/29 06:25:59;;;;;;;17.10;2.37;;;;;;;12.56;81.82;102331.38;4992080;28;20030;-84
2023/05/29 06:28:24;;;;;;;18.27;2.97;;;;;;;12.53;83.18;102332.66;4986148;28;20305;-84
2023/05/29 06:30:49;;;;;;;14.27;2.47;;;;;;;12.52;80.88;102341.78;4977478;28;20038;-84
2023/05/29 06:33:15;;;;;;;16.77;2.33;;;;;;;12.32;82.77;102346.66;4992054;28;20068;-85
2023/05/29 06:35:40;;;;;;;24.87;2.63;;;;;;;12.17;82.71;102334.50;4991757;28;20281;-85
2023/05/29 06:38:06;;;;;;;10.30;1.97;;;;;;;12.31;82.73;102343.19;4992376;28;20049;-86
2023/05/29 06:40:31;;;;;;;15.40;2.20;;;;;;;12.47;82.24;102346.22;4984288;28;20642;-85
2023/05/29 06:42:56;;;;;;;14.23;1.90;;;;;;;12.67;80.36;102345.84;4972305;28;20544;-85
2023/05/29 06:45:22;;;;;;;10.38;2.10;;;;;;;12.85;79.58;102348.41;4984407;28;20038;-84
2023/05/29 06:47:47;;;;;;;14.70;2.57;;;;;;;12.98;78.88;102350.03;4992130;28;20030;-84
2023/05/29 06:50:13;;;;;;;12.93;2.30;;;;;;;13.03;78.33;102334.00;4990720;28;20026;-85
2023/05/29 06:52:39;;;;;;;14.90;2.50;;;;;;;13.21;77.75;102350.22;4991879;28;20390;-85
2023/05/29 06:55:05;;;;;;;13.20;2.13;;;;;;;13.39;78.28;102341.97;4991248;28;20033;-85
2023/05/29 06:57:30;;;;;;;12.80;2.10;;;;;;;13.39;75.25;102346.56;4991467;28;20022;-85
2023/05/29 06:59:55;;;;;;;11.60;2.30;;;;;;;13.29;74.96;102345.28;4990468;28;20042;-85
2023/05/29 07:02:21;;;;;;;14.87;2.13;;;;;;;13.18;75.04;102349.63;4978128;28;20110;-85
2023/05/29 07:04:46;;;;;;;12.10;2.40;;;;;;;13.21;75.94;102342.97;4981355;28;20030;-85
2023/05/29 07:07:11;;;;;;;13.18;2.05;;;;;;;13.24;74.72;102353.25;4989506;28;20042;-85
2023/05/29 07:09:36;;;;;;;9.40;2.20;;;;;;;13.16;75.37;102348.25;4989832;28;20040;-85
2023/05/29 07:12:02;;;;;;;15.40;2.60;;;;;;;13.09;76.21;102348.38;4991595;28;20110;-85
2023/05/29 07:14:27;;;;;;;11.73;1.83;;;;;;;13.12;75.97;102353.31;4972736;28;20129;-85
2023/05/29 07:16:52;;;;;;;10.97;2.10;;;;;;;13.26;74.42;102347.63;4971418;28;20034;-85
2023/05/29 07:19:18;;;;;;;14.03;2.37;;;;;;;13.37;72.83;102349.47;4977610;28;20030;-85
2023/05/29 07:21:43;;;;;;;11.80;1.83;;;;;;;13.41;72.88;102334.50;4974707;28;20453;-86
2023/05/29 07:24:08;;;;;;;17.73;2.40;;;;;;;13.74;72.69;102348.31;4987677;28;20034;-86
2023/05/29 07:26:34;;;;;;;18.50;2.10;;;;;;;13.96;74.26;102353.00;4990667;28;20077;-85
2023/05/29 07:28:59;;;;;;;11.67;2.13;;;;;;;13.98;72.81;102340.91;4989625;28;20101;-86
2023/05/29 07:31:24;;;;;;;13.30;2.00;;;;;;;14.22;71.98;102352.34;4990994;28;20026;-86
2023/05/29 07:33:49;;;;;;;20.10;2.30;;;;;;;14.30;69.38;102356.50;4991500;28;20026;-85
2023/05/29 07:36:17;;;;;;;8.43;1.90;;;;;;;14.35;70.12;102356.59;4989415;28;20030;-85
2023/05/29 07:38:42;;;;;;;14.57;2.30;;;;;;;14.36;67.54;102360.94;4988796;28;20088;-85
2023/05/29 07:41:07;;;;;;;13.00;2.47;;;;;;;14.38;67.05;102358.81;4989001;28;20034;-85
2023/05/29 07:43:33;;;;;;;11.97;2.27;;;;;;;14.30;67.40;102356.50;4990438;28;20277;-84
2023/05/29 07:45:58;;;;;;;17.73;2.20;;;;;;;14.41;67.99;102367.47;4990347;28;20062;-85
2023/05/29 07:48:23;;;;;;;12.77;2.17;;;;;;;14.64;68.38;102372.66;4990018;28;20030;-85
2023/05/29 07:50:49;;;;;;;9.27;2.03;;;;;;;14.77;65.96;102370.72;4990846;28;20161;-85
2023/05/29 07:53:14;;;;;;;12.20;2.17;;;;;;;14.90;64.80;102364.97;4989672;28;20493;-84
2023/05/29 07:55:39;;;;;;;12.75;2.15;;;;;;;15.08;65.68;102371.13;4990470;28;20664;-85
2023/05/29 07:58:05;;;;;;;14.53;2.47;;;;;;;15.15;64.00;102366.38;4990528;28;20037;-85
2023/05/29 08:00:30;;;;;;;11.77;2.33;;;;;;;15.17;62.68;102366.91;4977272;28;20121;-85
2023/05/29 08:02:57;;;;;;;14.10;2.37;;;;;;;15.27;63.04;102368.91;4982767;28;20030;-85
2023/05/29 08:05:22;;;;;;;12.10;1.90;;;;;;;15.44;63.24;102374.25;4989756;28;20085;-85
2023/05/29 08:07:48;;;;;;;10.73;1.83;;;;;;;15.43;62.86;102375.31;4988288;28;20019;-85
2023/05/29 08:10:14;;;;;;;13.38;2.22;;;;;;;15.49;60.69;102366.22;4980513;28;20452;-86
2023/05/29 08:12:39;;;;;;;9.20;1.88;;;;;;;15.55;61.93;102376.00;4989207;28;20031;-86
2023/05/29 08:15:05;;;;;;;10.90;2.20;;;;;;;15.50;60.16;102384.06;5003050;28;20587;-86
2023/05/29 08:17:30;;;;;;;12.95;2.10;;;;;;;15.55;63.10;102376.00;4992076;28;20626;-84
2023/05/29 08:19:56;;;;;;;11.57;2.13;;;;;;;15.79;60.46;102370.28;4987714;28;20033;-87
2023/05/29 08:22:28;;;;;;;10.23;2.15;;;;;;;16.04;60.71;102371.66;4985405;28;20113;-90
2023/05/29 08:24:53;;;;;;;11.75;1.92;;;;;;;16.22;60.10;102367.72;4998721;28;20420;-88
2023/05/29 08:27:19;;;;;;;7.50;1.80;;;;;;;16.26;58.26;102384.25;4989144;28;20030;-87
2023/05/29 08:29:44;;;;;;;13.07;2.27;;;;;;;16.16;59.70;102377.69;4994081;28;20022;-87
2023/05/29 08:32:09;;;;;;;11.00;2.27;;;;;;;16.15;58.81;102384.16;4998270;28;20076;-87
2023/05/29 08:34:35;;;;;;;10.73;2.30;;;;;;;16.13;57.94;102386.31;4999116;28;20044;-86
2023/05/29 08:37:00;;;;;;;11.85;1.80;;;;;;;16.23;57.26;102377.47;4978621;28;20035;-87
2023/05/29 08:39:25;;;;;;;10.23;2.17;;;;;;;16.13;57.71;102389.00;4985906;28;20037;-86
2023/05/29 08:42:07;;;;;;;11.10;1.93;;;;;;;16.15;58.29;102384.16;4996276;28;20022;-86
2023/05/29 08:44:33;;;;;;;9.88;2.05;;;;;;;16.13;57.60;102372.78;4977023;28;20057;-86
2023/05/29 08:47:01;;;;;;;9.30;2.15;;;;;;;16.30;56.89;102394.31;4979493;28;20053;-86
2023/05/29 08:49:29;;;;;;;11.80;2.00;;;;;;;16.33;56.02;102385.69;5001053;28;20029;-94
2023/05/29 08:52:08;;;;;;;11.07;2.20;;;;;;;16.43;55.78;102394.94;5001590;28;20683;-91
2023/05/29 08:54:33;;;;;;;9.68;2.05;;;;;;;16.52;57.04;102387.16;4992462;28;20575;-92
2023/05/29 08:57:01;;;;;;;10.27;1.90;;;;;;;16.73;56.39;102388.09;4999511;28;20033;-93
2023/05/29 08:59:29;;;;;;;8.67;2.50;;;;;;;16.76;54.67;102398.38;4996661;28;20358;-95
2023/05/29 09:01:55;;;;;;;11.52;2.40;;;;;;;16.87;56.02;102393.84;4988975;28;20037;-93
2023/05/29 09:04:20;;;;;;;10.52;2.30;;;;;;;17.16;55.86;102397.00;5006397;28;20038;-95
2023/05/29 09:06:47;;;;;;;8.82;2.20;;;;;;;17.40;55.15;102405.50;5000150;28;20034;-95
2023/05/29 09:09:12;;;;;;;14.60;2.17;;;;;;;17.41;52.29;102401.72;5009853;28;20062;-96
2023/05/29 09:11:37;;;;;;;9.13;2.05;;;;;;;17.17;54.04;102392.41;5011345;28;20040;-96
2023/05/29 09:14:03;;;;;;;9.77;2.07;;;;;;;17.41;54.43;102400.91;5009051;28;20026;-96
2023/05/29 09:16:28;;;;;;;8.87;2.00;;;;;;;17.60;51.69;102397.72;4999547;28;20509;-89
2023/05/29 09:19:04;;;;;;;9.55;2.20;;;;;;;17.73;53.11;102397.19;4992642;28;20085;-88
2023/05/29 09:21:33;;;;;;;8.82;2.10;;;;;;;17.57;51.49;102396.31;4993790;28;20030;-91
2023/05/29 09:24:03;;;;;;;11.45;2.47;;;;;;;17.73;53.25;102407.19;4987102;28;20037;-93
2023/05/29 09:26:29;;;;;;;8.43;1.80;;;;;;;17.95;50.97;102405.06;4987739;28;20575;-93
2023/05/29 09:28:57;;;;;;;11.27;2.05;;;;;;;18.11;50.38;102399.69;4992874;28;20398;-92
2023/05/29 09:31:22;;;;;;;9.02;2.20;;;;;;;18.25;51.49;102400.81;4991502;28;20037;-88
2023/05/29 09:33:48;;;;;;;10.17;2.37;;;;;;;18.21;49.68;102402.41;4995030;28;20022;-92
2023/05/29 09:36:22;;;;;;;7.80;2.30;;;;;;;18.40;51.13;102391.81;4992815;28;20034;-87
2023/05/29 09:38:48;;;;;;;7.95;2.08;;;;;;;18.53;48.36;102381.50;4987150;28;20393;-90
2023/05/29 09:41:13;;;;;;;10.00;2.00;;;;;;;18.70;48.63;102401.03;4984762;28;20026;-93
2023/05/29 09:43:39;;;;;;;12.02;2.40;;;;;;;18.44;49.74;102387.47;4991207;28;20037;-93
2023/05/29 09:46:09;;;;;;;6.77;2.40;;;;;;;18.31;48.70;102383.41;4991594;28;20031;-90
2023/05/29 09:48:35;;;;;;;9.97;2.40;;;;;;;18.49;49.55;102388.56;4986652;28;20297;-93
2023/05/29 09:51:02;;;;;;;10.45;2.28;;;;;;;18.46;48.87;102379.06;4996013;28;20034;-94
2023/05/29 09:53:28;;;;;;;12.07;2.40;;;;;;;18.76;48.61;102390.94;5013089;28;20027;-93
2023/05/29 09:55:55;;;;;;;8.80;2.58;;;;;;;18.99;48.16;102386.84;4996479;28;20037;-92
2023/05/29 09:58:22;;;;;;;10.93;2.30;;;;;;;18.79;47.40;102393.13;5012870;28;20506;-92
2023/05/29 10:00:49;;;;;;;11.68;2.40;;;;;;;18.79;48.31;102382.25;5011172;28;20591;-91
2023/05/29 10:03:16;;;;;;;10.70;2.15;;;;;;;18.69;48.45;102391.25;5010880;28;20029;-92
2023/05/29 10:05:43;;;;;;;11.68;3.03;;;;;;;18.91;48.99;102390.91;5008218;28;20113;-91
2023/05/29 10:08:12;;;;;;;17.88;3.08;;;;;;;18.99;48.78;102388.75;4996548;28;20086;-93
2023/05/29 10:10:41;;;;;;;11.37;2.20;;;;;;;19.13;47.84;102397.94;4997207;28;20136;-93
2023/05/29 10:13:12;;;;;;;9.57;2.70;;;;;;;19.13;46.40;102384.34;4995521;28;20292;-93
2023/05/29 10:15:39;;;;;;;8.95;2.50;;;;;;;19.23;47.03;102397.06;4995481;28;20471;-93
2023/05/29 10:18:12;;;;;;;8.50;2.30;;;;;;;19.30;47.36;102381.25;4994448;28;20023;-93
2023/05/29 10:20:38;;;;;;;11.57;2.28;;;;;;;19.33;47.88;102396.22;4976197;28;20108;-91
2023/05/29 10:23:05;;;;;;;8.30;2.13;;;;;;;19.31;48.57;102392.97;4993840;28;20026;-93
2023/05/29 10:25:33;;;;;;;15.45;2.50;;;;;;;19.32;47.37;102394.59;4992721;28;20034;-93
2023/05/29 10:27:59;;;;;;;12.50;2.60;;;;;;;19.16;47.15;102386.50;4994423;28;20022;-93
2023/05/29 10:30:36;;;;;;;11.20;2.35;;;;;;;19.26;47.42;102379.38;4996332;28;20085;-93
2023/05/29 10:33:23;;;;;;;11.20;2.65;;;;;;;19.46;46.64;102383.88;4993938;28;20084;-92
2023/05/29 10:35:57;;;;;;;9.17;2.47;;;;;;;19.46;46.99;102373.84;4993826;28;20029;-94
2023/05/29 10:38:24;;;;;;;10.73;2.30;;;;;;;19.89;46.67;102375.25;4986895;28;20298;-93
2023/05/29 10:40:49;;;;;;;9.77;2.22;;;;;;;20.21;47.37;102366.50;4976441;28;20031;-92
2023/05/29 10:43:32;;;;;;;9.97;2.40;;;;;;;20.45;45.67;102384.00;4958436;28;20377;-93
2023/05/29 10:45:58;;;;;;;12.90;2.87;;;;;;;20.38;44.34;102376.97;4975062;28;20286;-92
2023/05/29 10:48:28;;;;;;;10.27;2.22;;;;;;;20.73;43.93;102377.72;4983879;28;20493;-92
2023/05/29 10:50:53;;;;;;;13.88;2.70;;;;;;;20.69;43.45;102382.09;4983670;28;20041;-93
2023/05/29 10:53:30;;;;;;;9.50;2.30;;;;;;;20.51;43.09;102377.41;4975156;28;20019;-93
2023/05/29 10:55:56;;;;;;;8.85;2.42;;;;;;;20.47;44.00;102373.63;4975511;28;20367;-91
2023/05/29 10:58:24;;;;;;;13.70;2.72;;;;;;;20.44;43.42;102375.00;5001871;28;20030;-93
2023/05/29 11:00:50;;;;;;;7.90;2.10;;;;;;;20.51;43.92;102369.22;4975332;28;20066;-93
2023/05/29 11:03:20;;;;;;;10.20;2.67;;;;;;;20.36;43.40;102375.66;4975169;28;20027;-92
2023/05/29 11:06:02;;;;;;;7.63;2.23;;;;;;;20.52;43.44;102373.56;4973103;28;20278;-92
2023/05/29 11:08:46;;;;;;;6.65;2.38;;;;;;;20.76;43.02;102378.25;4991261;28;20046;-94
2023/05/29 11:11:13;;;;;;;9.77;2.50;;;;;;;20.71;42.46;102360.84;4975709;28;20030;-93
2023/05/29 11:13:40;;;;;;;11.18;2.85;;;;;;;20.84;42.11;102362.09;4994061;28;20023;-92
2023/05/29 11:16:24;;;;;;;10.30;2.50;;;;;;;20.94;42.96;102361.16;4992616;28;20508;-94